EGPF/GLA METAR and TAF weather

Enter ICAO airport designator
Station Type Date Time Source
EGPF METAR 2018/04/27 00:50 UTC NOAA

EGPF 270050Z AUTO VRB01KT 9999 BKN026 05/03 Q1010


Station Type Date Time Source
EGPF Decoded METAR 2018/04/27 00:50 UTC NOAA

Glasgow Airport, United Kingdom (EGPF) 55-52N 004-26W 0M
Apr 26, 2018 - 08:50 PM EDT / 2018.04.27 0050 UTC
Wind: Variable at 1 MPH (1 KT):0
Visibility: greater than 7 mile(s):0
Sky conditions: mostly cloudy
Temperature: 41 F (5 C)
Dew Point: 37 F (3 C)
Relative Humidity: 86%
Pressure (altimeter): 29.83 in. Hg (1010 hPa)
ob: EGPF 270050Z AUTO VRB01KT 9999 BKN026 05/03 Q1010
cycle: 1

Station Type Date Time Source
EGPF TAF 2018/04/26 22:39 UTC NOAA

TAF
AMD TAF
AMD EGPF 262236Z 2622/2718 27008KT 9999 SCT030 PROB30
TEMPO 2711/2717 8000 -SHRA


Example: see airport list